sensor_id;sensor_type;location;lat;lon;timestamp;P1;durP1;ratioP1;P2;durP2;ratioP2
6878;SDS011;3478;51.462;7.338;2022-09-27T00:01:49;6.17;;;1.70;;
6878;SDS011;3478;51.462;7.338;2022-09-27T00:06:51;3.43;;;1.17;;
6878;SDS011;3478;51.462;7.338;2022-09-27T00:11:53;6.93;;;1.60;;
6878;SDS011;3478;51.462;7.338;2022-09-27T00:16:56;8.87;;;1.47;;
6878;SDS011;3478;51.462;7.338;2022-09-27T00:21:58;9.33;;;2.80;;
6878;SDS011;3478;51.462;7.338;2022-09-27T00:27:01;2.43;;;2.23;;
6878;SDS011;3478;51.462;7.338;2022-09-27T00:32:04;3.20;;;2.47;;
6878;SDS011;3478;51.462;7.338;2022-09-27T00:37:06;2.30;;;1.80;;
6878;SDS011;3478;51.462;7.338;2022-09-27T00:42:08;2.90;;;1.73;;
6878;SDS011;3478;51.462;7.338;2022-09-27T00:47:13;3.40;;;2.73;;
6878;SDS011;3478;51.462;7.338;2022-09-27T00:52:22;3.40;;;3.20;;
6878;SDS011;3478;51.462;7.338;2022-09-27T00:57:27;4.30;;;3.97;;
6878;SDS011;3478;51.462;7.338;2022-09-27T01:02:30;4.17;;;3.20;;
6878;SDS011;3478;51.462;7.338;2022-09-27T01:07:35;4.23;;;3.07;;
6878;SDS011;3478;51.462;7.338;2022-09-27T01:12:41;3.10;;;2.43;;
6878;SDS011;3478;51.462;7.338;2022-09-27T01:17:53;3.17;;;2.83;;
6878;SDS011;3478;51.462;7.338;2022-09-27T01:23:14;4.97;;;3.67;;
6878;SDS011;3478;51.462;7.338;2022-09-27T01:28:34;4.63;;;3.90;;
6878;SDS011;3478;51.462;7.338;2022-09-27T01:33:49;5.67;;;3.67;;
6878;SDS011;3478;51.462;7.338;2022-09-27T01:39:05;5.57;;;4.20;;
6878;SDS011;3478;51.462;7.338;2022-09-27T01:44:20;5.60;;;3.90;;
6878;SDS011;3478;51.462;7.338;2022-09-27T01:49:29;6.50;;;5.13;;
6878;SDS011;3478;51.462;7.338;2022-09-27T01:54:36;6.57;;;4.77;;
6878;SDS011;3478;51.462;7.338;2022-09-27T01:59:43;7.77;;;5.10;;
6878;SDS011;3478;51.462;7.338;2022-09-27T02:04:49;9.40;;;4.63;;
6878;SDS011;3478;51.462;7.338;2022-09-27T02:09:54;13.27;;;7.57;;
6878;SDS011;3478;51.462;7.338;2022-09-27T02:15:02;11.27;;;7.90;;
6878;SDS011;3478;51.462;7.338;2022-09-27T02:20:12;13.33;;;9.17;;
6878;SDS011;3478;51.462;7.338;2022-09-27T02:25:19;15.13;;;10.87;;
6878;SDS011;3478;51.462;7.338;2022-09-27T02:30:24;13.03;;;10.77;;
6878;SDS011;3478;51.462;7.338;2022-09-27T02:35:29;12.87;;;10.00;;
6878;SDS011;3478;51.462;7.338;2022-09-27T02:40:34;17.07;;;10.50;;
6878;SDS011;3478;51.462;7.338;2022-09-27T02:45:46;16.83;;;10.43;;
6878;SDS011;3478;51.462;7.338;2022-09-27T02:51:04;12.53;;;8.97;;
6878;SDS011;3478;51.462;7.338;2022-09-27T02:56:15;9.30;;;6.80;;
6878;SDS011;3478;51.462;7.338;2022-09-27T03:01:26;10.40;;;6.40;;
6878;SDS011;3478;51.462;7.338;2022-09-27T03:06:34;9.00;;;6.07;;
6878;SDS011;3478;51.462;7.338;2022-09-27T03:11:40;8.63;;;5.40;;
6878;SDS011;3478;51.462;7.338;2022-09-27T03:16:42;9.13;;;5.33;;
6878;SDS011;3478;51.462;7.338;2022-09-27T03:21:45;11.03;;;6.10;;
6878;SDS011;3478;51.462;7.338;2022-09-27T03:26:47;10.57;;;6.10;;
6878;SDS011;3478;51.462;7.338;2022-09-27T03:31:49;8.67;;;5.67;;
6878;SDS011;3478;51.462;7.338;2022-09-27T03:36:52;8.63;;;5.10;;
6878;SDS011;3478;51.462;7.338;2022-09-27T03:41:54;6.43;;;4.87;;
6878;SDS011;3478;51.462;7.338;2022-09-27T03:46:56;10.50;;;5.50;;
6878;SDS011;3478;51.462;7.338;2022-09-27T03:52:00;7.57;;;4.87;;
6878;SDS011;3478;51.462;7.338;2022-09-27T03:57:02;3.87;;;3.20;;
6878;SDS011;3478;51.462;7.338;2022-09-27T04:02:04;4.83;;;3.10;;
6878;SDS011;3478;51.462;7.338;2022-09-27T04:07:08;3.23;;;3.00;;
6878;SDS011;3478;51.462;7.338;2022-09-27T04:12:10;3.70;;;1.90;;
6878;SDS011;3478;51.462;7.338;2022-09-27T04:17:12;8.23;;;3.07;;
6878;SDS011;3478;51.462;7.338;2022-09-27T04:22:15;4.97;;;3.23;;
6878;SDS011;3478;51.462;7.338;2022-09-27T04:27:17;17.27;;;3.90;;
6878;SDS011;3478;51.462;7.338;2022-09-27T04:32:21;9.63;;;4.80;;
6878;SDS011;3478;51.462;7.338;2022-09-27T04:37:24;11.70;;;8.77;;
6878;SDS011;3478;51.462;7.338;2022-09-27T04:42:27;16.43;;;9.73;;
6878;SDS011;3478;51.462;7.338;2022-09-27T04:47:29;27.03;;;12.57;;
6878;SDS011;3478;51.462;7.338;2022-09-27T04:52:34;24.83;;;13.60;;
6878;SDS011;3478;51.462;7.338;2022-09-27T04:57:36;20.17;;;11.77;;
6878;SDS011;3478;51.462;7.338;2022-09-27T05:02:38;16.40;;;11.97;;
6878;SDS011;3478;51.462;7.338;2022-09-27T05:07:41;23.13;;;15.53;;
6878;SDS011;3478;51.462;7.338;2022-09-27T05:12:43;19.63;;;13.80;;
6878;SDS011;3478;51.462;7.338;2022-09-27T05:17:45;15.50;;;10.67;;
6878;SDS011;3478;51.462;7.338;2022-09-27T05:22:48;18.30;;;10.40;;
6878;SDS011;3478;51.462;7.338;2022-09-27T05:27:50;11.17;;;9.10;;
6878;SDS011;3478;51.462;7.338;2022-09-27T05:32:52;21.33;;;9.17;;
6878;SDS011;3478;51.462;7.338;2022-09-27T05:37:57;15.17;;;8.70;;
6878;SDS011;3478;51.462;7.338;2022-09-27T05:43:00;16.77;;;7.67;;
6878;SDS011;3478;51.462;7.338;2022-09-27T05:48:02;12.30;;;8.23;;
6878;SDS011;3478;51.462;7.338;2022-09-27T05:53:05;9.43;;;7.00;;
6878;SDS011;3478;51.462;7.338;2022-09-27T05:58:08;7.33;;;6.57;;
6878;SDS011;3478;51.462;7.338;2022-09-27T06:03:11;11.67;;;7.67;;
6878;SDS011;3478;51.462;7.338;2022-09-27T06:08:15;10.33;;;6.83;;
6878;SDS011;3478;51.462;7.338;2022-09-27T06:13:19;9.73;;;7.50;;
6878;SDS011;3478;51.462;7.338;2022-09-27T06:18:20;7.60;;;6.87;;
6878;SDS011;3478;51.462;7.338;2022-09-27T06:23:24;9.70;;;8.70;;
6878;SDS011;3478;51.462;7.338;2022-09-27T06:28:26;10.00;;;8.23;;
6878;SDS011;3478;51.462;7.338;2022-09-27T06:33:28;10.63;;;7.30;;
6878;SDS011;3478;51.462;7.338;2022-09-27T06:38:31;7.17;;;5.90;;
6878;SDS011;3478;51.462;7.338;2022-09-27T06:43:34;8.07;;;6.87;;
6878;SDS011;3478;51.462;7.338;2022-09-27T06:48:36;8.30;;;5.77;;
6878;SDS011;3478;51.462;7.338;2022-09-27T06:53:39;6.93;;;4.70;;
6878;SDS011;3478;51.462;7.338;2022-09-27T06:58:41;4.33;;;3.70;;
6878;SDS011;3478;51.462;7.338;2022-09-27T07:04:01;7.40;;;3.10;;
6878;SDS011;3478;51.462;7.338;2022-09-27T07:09:04;4.23;;;3.23;;
6878;SDS011;3478;51.462;7.338;2022-09-27T07:14:06;3.70;;;2.93;;
6878;SDS011;3478;51.462;7.338;2022-09-27T07:19:09;4.60;;;2.20;;
6878;SDS011;3478;51.462;7.338;2022-09-27T07:24:14;6.53;;;2.43;;
6878;SDS011;3478;51.462;7.338;2022-09-27T07:29:16;2.50;;;1.93;;
6878;SDS011;3478;51.462;7.338;2022-09-27T07:34:18;3.20;;;1.83;;
6878;SDS011;3478;51.462;7.338;2022-09-27T07:39:22;2.13;;;1.70;;
6878;SDS011;3478;51.462;7.338;2022-09-27T07:44:24;3.10;;;2.33;;
6878;SDS011;3478;51.462;7.338;2022-09-27T07:49:26;2.10;;;2.00;;
6878;SDS011;3478;51.462;7.338;2022-09-27T07:54:29;5.07;;;2.20;;
6878;SDS011;3478;51.462;7.338;2022-09-27T07:59:31;3.80;;;2.20;;
6878;SDS011;3478;51.462;7.338;2022-09-27T08:04:33;2.23;;;2.13;;
6878;SDS011;3478;51.462;7.338;2022-09-27T08:09:36;3.63;;;3.20;;
6878;SDS011;3478;51.462;7.338;2022-09-27T08:14:38;7.13;;;4.27;;
6878;SDS011;3478;51.462;7.338;2022-09-27T08:19:40;4.43;;;3.20;;
6878;SDS011;3478;51.462;7.338;2022-09-27T08:24:45;9.60;;;3.00;;
6878;SDS011;3478;51.462;7.338;2022-09-27T08:29:47;3.80;;;2.27;;
6878;SDS011;3478;51.462;7.338;2022-09-27T08:34:49;2.47;;;2.23;;
6878;SDS011;3478;51.462;7.338;2022-09-27T08:39:53;3.67;;;2.60;;
6878;SDS011;3478;51.462;7.338;2022-09-27T08:44:57;4.83;;;2.80;;
6878;SDS011;3478;51.462;7.338;2022-09-27T08:50:07;3.73;;;2.77;;
6878;SDS011;3478;51.462;7.338;2022-09-27T08:55:21;1.90;;;1.80;;
6878;SDS011;3478;51.462;7.338;2022-09-27T09:00:27;2.53;;;2.33;;
6878;SDS011;3478;51.462;7.338;2022-09-27T09:05:30;3.50;;;2.50;;
6878;SDS011;3478;51.462;7.338;2022-09-27T09:10:40;3.77;;;2.20;;
6878;SDS011;3478;51.462;7.338;2022-09-27T09:16:07;2.80;;;2.20;;
6878;SDS011;3478;51.462;7.338;2022-09-27T09:21:20;1.80;;;1.70;;
6878;SDS011;3478;51.462;7.338;2022-09-27T09:26:31;4.33;;;2.33;;
6878;SDS011;3478;51.462;7.338;2022-09-27T09:31:40;2.00;;;1.90;;
6878;SDS011;3478;51.462;7.338;2022-09-27T09:36:49;3.77;;;2.23;;
6878;SDS011;3478;51.462;7.338;2022-09-27T09:42:00;1.67;;;1.57;;
6878;SDS011;3478;51.462;7.338;2022-09-27T09:47:09;3.27;;;1.63;;
6878;SDS011;3478;51.462;7.338;2022-09-27T09:52:18;2.60;;;1.63;;
6878;SDS011;3478;51.462;7.338;2022-09-27T09:57:26;1.43;;;1.33;;
6878;SDS011;3478;51.462;7.338;2022-09-27T10:02:31;1.43;;;1.33;;
6878;SDS011;3478;51.462;7.338;2022-09-27T10:07:35;2.30;;;2.10;;
6878;SDS011;3478;51.462;7.338;2022-09-27T10:12:40;1.60;;;1.50;;
6878;SDS011;3478;51.462;7.338;2022-09-27T10:17:44;1.53;;;1.33;;
6878;SDS011;3478;51.462;7.338;2022-09-27T10:22:52;1.90;;;1.80;;
6878;SDS011;3478;51.462;7.338;2022-09-27T10:27:57;4.80;;;2.27;;
6878;SDS011;3478;51.462;7.338;2022-09-27T10:33:02;2.23;;;2.13;;
6878;SDS011;3478;51.462;7.338;2022-09-27T10:38:20;4.23;;;2.53;;
6878;SDS011;3478;51.462;7.338;2022-09-27T10:43:27;2.53;;;2.43;;
6878;SDS011;3478;51.462;7.338;2022-09-27T10:48:30;2.90;;;2.30;;
6878;SDS011;3478;51.462;7.338;2022-09-27T10:53:33;3.77;;;2.90;;
6878;SDS011;3478;51.462;7.338;2022-09-27T10:58:38;3.03;;;1.83;;
6878;SDS011;3478;51.462;7.338;2022-09-27T11:03:45;3.00;;;2.07;;
6878;SDS011;3478;51.462;7.338;2022-09-27T11:08:49;2.30;;;2.10;;
6878;SDS011;3478;51.462;7.338;2022-09-27T11:14:00;1.90;;;1.80;;
6878;SDS011;3478;51.462;7.338;2022-09-27T11:19:06;2.80;;;1.83;;
6878;SDS011;3478;51.462;7.338;2022-09-27T11:24:25;5.00;;;1.87;;
6878;SDS011;3478;51.462;7.338;2022-09-27T11:29:45;1.97;;;1.87;;
6878;SDS011;3478;51.462;7.338;2022-09-27T11:35:07;6.00;;;5.43;;
6878;SDS011;3478;51.462;7.338;2022-09-27T11:40:29;2.07;;;1.30;;
6878;SDS011;3478;51.462;7.338;2022-09-27T11:45:39;1.03;;;0.53;;
6878;SDS011;3478;51.462;7.338;2022-09-27T11:50:55;0.90;;;0.80;;
6878;SDS011;3478;51.462;7.338;2022-09-27T11:56:14;2.90;;;0.73;;
6878;SDS011;3478;51.462;7.338;2022-09-27T12:01:28;2.37;;;0.90;;
6878;SDS011;3478;51.462;7.338;2022-09-27T12:06:41;1.47;;;1.10;;
6878;SDS011;3478;51.462;7.338;2022-09-27T12:11:49;1.30;;;1.20;;
6878;SDS011;3478;51.462;7.338;2022-09-27T12:16:55;2.70;;;1.53;;
6878;SDS011;3478;51.462;7.338;2022-09-27T12:21:59;3.27;;;1.40;;
6878;SDS011;3478;51.462;7.338;2022-09-27T12:27:06;1.93;;;1.30;;
6878;SDS011;3478;51.462;7.338;2022-09-27T12:32:13;1.17;;;1.07;;
6878;SDS011;3478;51.462;7.338;2022-09-27T12:37:20;1.93;;;1.10;;
6878;SDS011;3478;51.462;7.338;2022-09-27T12:42:28;2.00;;;1.43;;
6878;SDS011;3478;51.462;7.338;2022-09-27T12:47:41;1.13;;;0.90;;
6878;SDS011;3478;51.462;7.338;2022-09-27T12:53:03;5.23;;;1.17;;
6878;SDS011;3478;51.462;7.338;2022-09-27T12:58:19;1.30;;;1.00;;
6878;SDS011;3478;51.462;7.338;2022-09-27T13:09:22;2.50;;;1.73;;
6878;SDS011;3478;51.462;7.338;2022-09-27T13:14:34;1.47;;;1.37;;
6878;SDS011;3478;51.462;7.338;2022-09-27T13:19:44;1.70;;;1.43;;
6878;SDS011;3478;51.462;7.338;2022-09-27T13:24:46;3.83;;;1.90;;
6878;SDS011;3478;51.462;7.338;2022-09-27T13:29:49;3.23;;;2.93;;
6878;SDS011;3478;51.462;7.338;2022-09-27T13:34:52;4.13;;;3.83;;
6878;SDS011;3478;51.462;7.338;2022-09-27T13:40:08;2.87;;;2.77;;
6878;SDS011;3478;51.462;7.338;2022-09-27T13:45:21;3.30;;;3.03;;
6878;SDS011;3478;51.462;7.338;2022-09-27T13:50:31;3.93;;;3.47;;
6878;SDS011;3478;51.462;7.338;2022-09-27T13:55:41;2.27;;;2.17;;
6878;SDS011;3478;51.462;7.338;2022-09-27T14:00:46;2.20;;;2.00;;
6878;SDS011;3478;51.462;7.338;2022-09-27T14:05:53;2.00;;;1.90;;
6878;SDS011;3478;51.462;7.338;2022-09-27T14:10:57;1.37;;;1.27;;
6878;SDS011;3478;51.462;7.338;2022-09-27T14:16:01;3.93;;;2.17;;
6878;SDS011;3478;51.462;7.338;2022-09-27T14:21:13;1.60;;;1.33;;
6878;SDS011;3478;51.462;7.338;2022-09-27T14:26:22;2.33;;;1.60;;
6878;SDS011;3478;51.462;7.338;2022-09-27T14:31:25;1.80;;;1.70;;
6878;SDS011;3478;51.462;7.338;2022-09-27T14:36:29;2.60;;;2.40;;
6878;SDS011;3478;51.462;7.338;2022-09-27T14:41:50;2.90;;;2.63;;
6878;SDS011;3478;51.462;7.338;2022-09-27T14:47:08;3.87;;;3.10;;
6878;SDS011;3478;51.462;7.338;2022-09-27T14:52:14;2.10;;;2.00;;
6878;SDS011;3478;51.462;7.338;2022-09-27T14:57:20;2.87;;;2.67;;
6878;SDS011;3478;51.462;7.338;2022-09-27T15:02:22;1.90;;;1.80;;
6878;SDS011;3478;51.462;7.338;2022-09-27T15:07:27;2.57;;;2.37;;
6878;SDS011;3478;51.462;7.338;2022-09-27T15:12:31;4.67;;;4.27;;
6878;SDS011;3478;51.462;7.338;2022-09-27T15:17:40;4.53;;;3.37;;
6878;SDS011;3478;51.462;7.338;2022-09-27T15:22:44;3.67;;;2.73;;
6878;SDS011;3478;51.462;7.338;2022-09-27T15:27:50;2.43;;;2.23;;
6878;SDS011;3478;51.462;7.338;2022-09-27T15:32:54;1.00;;;0.90;;
6878;SDS011;3478;51.462;7.338;2022-09-27T15:38:12;2.13;;;1.00;;
6878;SDS011;3478;51.462;7.338;2022-09-27T15:43:27;3.70;;;1.47;;
6878;SDS011;3478;51.462;7.338;2022-09-27T15:48:30;2.43;;;0.97;;
6878;SDS011;3478;51.462;7.338;2022-09-27T15:53:44;3.07;;;1.03;;
6878;SDS011;3478;51.462;7.338;2022-09-27T15:58:46;1.90;;;0.60;;
6878;SDS011;3478;51.462;7.338;2022-09-27T16:03:48;3.00;;;0.70;;
6878;SDS011;3478;51.462;7.338;2022-09-27T16:08:51;2.87;;;0.50;;
6878;SDS011;3478;51.462;7.338;2022-09-27T16:13:53;1.20;;;0.60;;
6878;SDS011;3478;51.462;7.338;2022-09-27T16:18:55;0.90;;;0.63;;
6878;SDS011;3478;51.462;7.338;2022-09-27T16:23:58;6.33;;;0.87;;
6878;SDS011;3478;51.462;7.338;2022-09-27T16:29:01;2.20;;;0.50;;
6878;SDS011;3478;51.462;7.338;2022-09-27T16:34:03;1.80;;;0.50;;
6878;SDS011;3478;51.462;7.338;2022-09-27T16:39:07;2.00;;;0.50;;
6878;SDS011;3478;51.462;7.338;2022-09-27T16:44:12;4.20;;;0.70;;
6878;SDS011;3478;51.462;7.338;2022-09-27T16:49:16;0.90;;;0.50;;
6878;SDS011;3478;51.462;7.338;2022-09-27T16:54:35;2.13;;;0.70;;
6878;SDS011;3478;51.462;7.338;2022-09-27T16:59:37;5.47;;;4.93;;
6878;SDS011;3478;51.462;7.338;2022-09-27T17:04:39;3.53;;;2.03;;
6878;SDS011;3478;51.462;7.338;2022-09-27T17:09:43;1.17;;;1.07;;
6878;SDS011;3478;51.462;7.338;2022-09-27T17:14:45;2.70;;;1.53;;
6878;SDS011;3478;51.462;7.338;2022-09-27T17:19:46;2.17;;;1.13;;
6878;SDS011;3478;51.462;7.338;2022-09-27T17:24:50;4.53;;;2.27;;
6878;SDS011;3478;51.462;7.338;2022-09-27T17:29:51;2.93;;;1.50;;
6878;SDS011;3478;51.462;7.338;2022-09-27T17:34:54;2.03;;;1.57;;
6878;SDS011;3478;51.462;7.338;2022-09-27T17:39:59;1.90;;;1.67;;
6878;SDS011;3478;51.462;7.338;2022-09-27T17:45:01;2.53;;;2.33;;
6878;SDS011;3478;51.462;7.338;2022-09-27T17:50:03;3.93;;;1.63;;
6878;SDS011;3478;51.462;7.338;2022-09-27T17:55:25;2.20;;;1.30;;
6878;SDS011;3478;51.462;7.338;2022-09-27T18:00:27;4.37;;;2.03;;
6878;SDS011;3478;51.462;7.338;2022-09-27T18:05:28;2.43;;;1.70;;
6878;SDS011;3478;51.462;7.338;2022-09-27T18:10:32;3.53;;;1.37;;
6878;SDS011;3478;51.462;7.338;2022-09-27T18:15:34;3.77;;;2.97;;
6878;SDS011;3478;51.462;7.338;2022-09-27T18:20:36;10.27;;;6.33;;
6878;SDS011;3478;51.462;7.338;2022-09-27T18:25:39;4.17;;;1.70;;
6878;SDS011;3478;51.462;7.338;2022-09-27T18:30:41;7.30;;;4.30;;
6878;SDS011;3478;51.462;7.338;2022-09-27T18:35:44;2.93;;;2.43;;
6878;SDS011;3478;51.462;7.338;2022-09-27T18:40:47;2.70;;;1.73;;
6878;SDS011;3478;51.462;7.338;2022-09-27T18:45:51;1.60;;;1.50;;
6878;SDS011;3478;51.462;7.338;2022-09-27T18:50:52;2.37;;;1.60;;
6878;SDS011;3478;51.462;7.338;2022-09-27T18:55:56;2.00;;;1.53;;
6878;SDS011;3478;51.462;7.338;2022-09-27T19:01:02;2.53;;;2.20;;
6878;SDS011;3478;51.462;7.338;2022-09-27T19:06:05;2.77;;;2.27;;
6878;SDS011;3478;51.462;7.338;2022-09-27T19:11:12;6.83;;;3.47;;
6878;SDS011;3478;51.462;7.338;2022-09-27T19:16:15;2.43;;;2.23;;
6878;SDS011;3478;51.462;7.338;2022-09-27T19:21:18;9.30;;;2.83;;
6878;SDS011;3478;51.462;7.338;2022-09-27T19:26:23;2.37;;;2.23;;
6878;SDS011;3478;51.462;7.338;2022-09-27T19:31:26;3.57;;;2.50;;
6878;SDS011;3478;51.462;7.338;2022-09-27T19:36:28;3.30;;;3.00;;
6878;SDS011;3478;51.462;7.338;2022-09-27T19:41:32;3.13;;;2.83;;
6878;SDS011;3478;51.462;7.338;2022-09-27T19:46:33;3.20;;;2.90;;
6878;SDS011;3478;51.462;7.338;2022-09-27T19:51:36;2.80;;;2.60;;
6878;SDS011;3478;51.462;7.338;2022-09-27T19:56:39;2.70;;;2.50;;
6878;SDS011;3478;51.462;7.338;2022-09-27T20:01:41;3.30;;;3.00;;
6878;SDS011;3478;51.462;7.338;2022-09-27T20:06:44;3.30;;;3.10;;
6878;SDS011;3478;51.462;7.338;2022-09-27T20:11:47;3.97;;;3.67;;
6878;SDS011;3478;51.462;7.338;2022-09-27T20:16:49;6.43;;;3.90;;
6878;SDS011;3478;51.462;7.338;2022-09-27T20:21:51;6.50;;;3.80;;
6878;SDS011;3478;51.462;7.338;2022-09-27T20:26:54;5.60;;;3.03;;
6878;SDS011;3478;51.462;7.338;2022-09-27T20:31:56;4.50;;;4.07;;
6878;SDS011;3478;51.462;7.338;2022-09-27T20:36:58;5.20;;;3.90;;
6878;SDS011;3478;51.462;7.338;2022-09-27T20:42:01;9.13;;;4.43;;
6878;SDS011;3478;51.462;7.338;2022-09-27T20:47:03;5.13;;;4.30;;
6878;SDS011;3478;51.462;7.338;2022-09-27T20:52:04;4.03;;;3.67;;
6878;SDS011;3478;51.462;7.338;2022-09-27T20:57:07;6.40;;;5.60;;
6878;SDS011;3478;51.462;7.338;2022-09-27T21:02:09;5.17;;;4.67;;
6878;SDS011;3478;51.462;7.338;2022-09-27T21:07:11;7.30;;;5.73;;
6878;SDS011;3478;51.462;7.338;2022-09-27T21:12:15;10.70;;;7.03;;
6878;SDS011;3478;51.462;7.338;2022-09-27T21:17:17;10.93;;;5.27;;
6878;SDS011;3478;51.462;7.338;2022-09-27T21:22:19;6.33;;;4.87;;
6878;SDS011;3478;51.462;7.338;2022-09-27T21:27:23;7.50;;;5.97;;
6878;SDS011;3478;51.462;7.338;2022-09-27T21:32:25;6.27;;;5.63;;
6878;SDS011;3478;51.462;7.338;2022-09-27T21:37:27;5.90;;;5.40;;
6878;SDS011;3478;51.462;7.338;2022-09-27T21:42:30;7.50;;;5.27;;
6878;SDS011;3478;51.462;7.338;2022-09-27T21:47:32;8.97;;;5.93;;
6878;SDS011;3478;51.462;7.338;2022-09-27T21:52:34;4.80;;;3.97;;
6878;SDS011;3478;51.462;7.338;2022-09-27T21:57:37;4.63;;;3.83;;
6878;SDS011;3478;51.462;7.338;2022-09-27T22:02:38;3.17;;;2.97;;
6878;SDS011;3478;51.462;7.338;2022-09-27T22:07:42;3.37;;;3.07;;
6878;SDS011;3478;51.462;7.338;2022-09-27T22:12:46;2.37;;;2.17;;
6878;SDS011;3478;51.462;7.338;2022-09-27T22:17:48;3.27;;;2.40;;
6878;SDS011;3478;51.462;7.338;2022-09-27T22:22:51;2.67;;;2.47;;
6878;SDS011;3478;51.462;7.338;2022-09-27T22:27:54;3.27;;;2.60;;
6878;SDS011;3478;51.462;7.338;2022-09-27T22:32:56;1.90;;;1.80;;
6878;SDS011;3478;51.462;7.338;2022-09-27T22:37:57;2.30;;;2.20;;
6878;SDS011;3478;51.462;7.338;2022-09-27T22:43:00;2.60;;;2.03;;
6878;SDS011;3478;51.462;7.338;2022-09-27T22:48:02;1.93;;;1.83;;
6878;SDS011;3478;51.462;7.338;2022-09-27T22:53:04;2.03;;;1.93;;
6878;SDS011;3478;51.462;7.338;2022-09-27T22:58:08;1.93;;;1.83;;
6878;SDS011;3478;51.462;7.338;2022-09-27T23:03:09;2.63;;;2.13;;
6878;SDS011;3478;51.462;7.338;2022-09-27T23:08:13;2.23;;;2.13;;
6878;SDS011;3478;51.462;7.338;2022-09-27T23:13:17;3.60;;;2.70;;
6878;SDS011;3478;51.462;7.338;2022-09-27T23:18:19;3.53;;;2.20;;
6878;SDS011;3478;51.462;7.338;2022-09-27T23:23:21;2.70;;;2.50;;
6878;SDS011;3478;51.462;7.338;2022-09-27T23:28:24;1.97;;;1.87;;
6878;SDS011;3478;51.462;7.338;2022-09-27T23:33:26;2.63;;;2.10;;
6878;SDS011;3478;51.462;7.338;2022-09-27T23:38:29;7.23;;;2.87;;
6878;SDS011;3478;51.462;7.338;2022-09-27T23:43:32;2.80;;;2.13;;
6878;SDS011;3478;51.462;7.338;2022-09-27T23:48:35;3.87;;;3.00;;
6878;SDS011;3478;51.462;7.338;2022-09-27T23:53:38;3.10;;;2.80;;
6878;SDS011;3478;51.462;7.338;2022-09-27T23:58:42;2.97;;;2.60;;
